Lake Charles, LA (70601)

7:14 AM CDT on September 03, 2015 (GMT -0500)
LCB Academy | | Change Station
CLOSE
Current Station
Personal Weather Station
Location: Lake Charles, LA
Elevation: 33 ft
Nearby Weather Stations

Elev 33 ft 30.22 °N, 93.20 °W | Updated 2 minutes ago

Overcast
Overcast
74.0 °F
Feels Like 71 °F
N
2.0
Wind Variable Wind from ENE
Gusts 3.0 mph

Today
High -- | Low -- °F
--% Chance of Precip.
Yesterday
High -- | Low -- °F
Precip. -- in
6:50 AM 7:33 PM
Waning Gibbous, 71% visible
Pressure 29.97 in
Visibility 10.0 miles
Clouds Overcast 300 ft
Heat Index 71 °F
Dew Point 73 °F
Humidity 96%
Rainfall 0.00 in
Snow Depth Not available.
UV 0 out of 12
Pollen 6.40 out of 12
Air Quality Not available.
Flu Activity Not available.
METAR KCWF 031155Z 08010KT 10SM OVC003 23/23 A2997
Pressure 29.97 in
Visibility 10.0 miles
Clouds Overcast 300 ft
Heat Index 71 °F
Dew Point 73 °F
Humidity 96%
Rainfall 0.00 in
Snow Depth Not available.
UV 0 out of 12
Pollen 6.40 out of 12
Air Quality Not available.
Flu Activity Not available.
METAR KCWF 031155Z 08010KT 10SM OVC003 23/23 A2997
Nowcast | as of 5:57 am CDT on September 3, 2015

Through 8 am. Scattered showers and a few thunderstorms will continue over the near coastal waters. Movement to the the north at 15 mph can be expected...with a few of the showers moving across coastal south Louisiana and southeast Texas...and approaching the Interstate 10 corridor.

×

10-Day Weather Forecast

×

Almanac

Astronomy

Sep. 03, 2015 Rise Set
Actual Time
Civil Twilight
Nautical Twilight
Astronomical Twilight
Moon
Length of Visible Light
Length of Day
Tomorrow will be .
, % of the Moon is Illuminated

Today's Extremes

State Highs State Lows

Community

WunderPhotos

Upload Photos

1,851,943 photos uploaded!

WunderBlogs® & News

Nearby

Air Quality

  Air Quality AQ Index Pollutant
Not available.

Snow Depth

Station Depth Elevation

Earthquake Activity

City Distance Mag. Time & Date
Minimum magnitude displayed is 2.5.

Coastal Water Temperatures

Place Temperature

Stations

Nearby Weather Stations

Station Location Temp. Windchill Dew Point Humidity Wind Precip. Elev Updated Type